CheckWX is a tool to help pilots better visualize weather data.  It is not intended as a substitute for an official pre-flight weather briefing.

18:59:07 UTC

F05 METAR
Wilbarger County Airport
Vernon, Texas, USA
Current

24 mins ago

KF05 191835Z AUTO 08010KT 10SM OVC027 03/M04 A3011 RMK AO1 T00261042
Observed
Feb-19 @ 18:35 UTC
Wind
  • 080° at 10 KTS
Visibility
10 SM
Flight Rules
MVFR
Cloud Levels
  • Overcast at 2,700' AGL
Temperature
C / 37°F
Dewpoint
-4°C / 25°F
Humidity
60%
Altimeter
30.11" Hg
Pressure
1019.62 hPa
Previous

44 mins ago

KF05 191815Z AUTO 09009KT 10SM OVC025 03/M04 A3011 RMK AO1 LTG DSNT N AND W T00251041
Observed
Feb-19 @ 18:15 UTC
Wind
  • 090° at 9 KTS
Visibility
10 SM
Flight Rules
MVFR
Cloud Levels
  • Overcast at 2,500' AGL
Temperature
C / 37°F
Dewpoint
-4°C / 25°F
Humidity
60%
Altimeter
30.11" Hg
Pressure
1019.62 hPa
Previous

1 hour ago

KF05 191755Z AUTO 10007KT 10SM OVC025 03/M04 A3011 RMK AO1 LTG DSNT SE AND W T00261044 10256 21042
Observed
Feb-19 @ 17:55 UTC
Wind
  • 100° at 7 KTS
Visibility
10 SM
Flight Rules
MVFR
Cloud Levels
  • Overcast at 2,500' AGL
Temperature
C / 37°F
Dewpoint
-4°C / 25°F
Humidity
60%
Altimeter
30.11" Hg
Pressure
1019.62 hPa